createdAt,value
2023-01-17T00:00:36.997Z,19.23
2023-01-17T00:01:36.989Z,19.32
2023-01-17T00:02:36.994Z,19.28
2023-01-17T00:03:37.092Z,19.17
2023-01-17T00:04:36.930Z,19.28
2023-01-17T00:05:36.914Z,19.20
2023-01-17T00:06:36.917Z,19.23
2023-01-17T00:07:36.910Z,19.25
2023-01-17T00:08:36.878Z,19.21
2023-01-17T00:09:36.869Z,19.23
2023-01-17T00:10:36.858Z,19.25
2023-01-17T00:11:36.852Z,19.24
2023-01-17T00:12:36.840Z,19.25
2023-01-17T00:13:36.830Z,19.25
2023-01-17T00:14:36.812Z,19.18
2023-01-17T00:15:36.800Z,19.24
2023-01-17T00:16:36.787Z,19.25
2023-01-17T00:17:36.780Z,19.18
2023-01-17T00:18:36.766Z,19.24
2023-01-17T00:19:36.785Z,19.18
2023-01-17T00:20:36.743Z,19.25
2023-01-17T00:21:36.733Z,19.17
2023-01-17T00:22:36.720Z,19.25
2023-01-17T00:23:36.711Z,19.23
2023-01-17T00:24:36.707Z,19.25
2023-01-17T00:25:36.734Z,19.20
2023-01-17T00:26:36.679Z,19.18
2023-01-17T00:27:36.669Z,19.28
2023-01-17T00:28:36.668Z,19.28
2023-01-17T00:29:36.649Z,19.31
2023-01-17T00:30:36.629Z,19.25
2023-01-17T00:31:36.691Z,19.20
2023-01-17T00:32:36.606Z,19.18
2023-01-17T00:33:36.608Z,19.25
2023-01-17T00:34:36.591Z,19.25
2023-01-17T00:35:36.594Z,19.31
2023-01-17T00:36:36.598Z,19.18
2023-01-17T00:37:36.553Z,19.18
2023-01-17T00:38:36.545Z,19.18
2023-01-17T00:39:36.526Z,19.20
2023-01-17T00:40:36.527Z,19.17
2023-01-17T00:41:36.504Z,19.25
2023-01-17T00:42:36.490Z,19.15
2023-01-17T00:43:36.505Z,19.20
2023-01-17T00:44:36.471Z,19.15
2023-01-17T00:45:36.459Z,19.18
2023-01-17T00:46:36.524Z,19.17
2023-01-17T00:47:36.437Z,19.20
2023-01-17T00:48:36.437Z,19.18
2023-01-17T00:49:36.416Z,19.25
2023-01-17T00:50:36.400Z,19.24
2023-01-17T00:51:36.405Z,19.18
2023-01-17T00:52:36.376Z,19.18
2023-01-17T00:53:36.366Z,19.17
2023-01-17T00:54:36.363Z,19.18
2023-01-17T00:55:36.348Z,19.24
2023-01-17T00:56:36.331Z,19.13
2023-01-17T00:57:36.323Z,19.17
2023-01-17T00:58:36.311Z,19.18
2023-01-17T00:59:36.297Z,19.18
2023-01-17T01:00:36.339Z,19.18
2023-01-17T01:01:36.425Z,19.17
2023-01-17T01:02:36.362Z,19.13
2023-01-17T01:03:36.253Z,19.18
2023-01-17T01:04:36.240Z,19.18
2023-01-17T01:05:36.238Z,19.17
2023-01-17T01:06:36.217Z,19.18
2023-01-17T01:07:36.230Z,19.21
2023-01-17T01:08:36.197Z,19.18
2023-01-17T01:09:36.190Z,19.13
2023-01-17T01:10:36.182Z,19.18
2023-01-17T01:11:36.170Z,19.17
2023-01-17T01:12:36.148Z,19.20
2023-01-17T01:13:36.148Z,19.25
2023-01-17T01:14:36.139Z,19.15
2023-01-17T01:15:36.118Z,19.31
2023-01-17T01:16:36.324Z,19.20
2023-01-17T01:17:36.098Z,19.24
2023-01-17T01:18:36.078Z,19.29
2023-01-17T01:19:36.076Z,19.32
2023-01-17T01:20:36.057Z,19.25
2023-01-17T01:21:36.047Z,19.28
2023-01-17T01:22:36.046Z,19.24
2023-01-17T01:23:36.048Z,19.31
2023-01-17T01:24:36.022Z,19.25
2023-01-17T01:25:36.006Z,19.20
2023-01-17T01:26:35.994Z,19.21
2023-01-17T01:27:35.976Z,19.32
2023-01-17T01:28:35.966Z,19.35
2023-01-17T01:29:35.954Z,19.23
2023-01-17T01:30:35.947Z,19.28
2023-01-17T01:31:36.035Z,19.38
2023-01-17T01:32:35.931Z,19.24
2023-01-17T01:33:35.920Z,19.24
2023-01-17T01:34:35.897Z,19.23
2023-01-17T01:35:35.885Z,19.25
2023-01-17T01:36:35.875Z,19.28
2023-01-17T01:37:35.895Z,19.29
2023-01-17T01:38:35.851Z,19.24
2023-01-17T01:39:35.872Z,19.32
2023-01-17T01:40:35.831Z,19.28
2023-01-17T01:41:35.818Z,19.31
2023-01-17T01:42:35.808Z,19.29
2023-01-17T01:43:35.815Z,19.28
2023-01-17T01:44:35.784Z,19.29
2023-01-17T01:45:35.823Z,19.32
2023-01-17T01:46:35.766Z,19.33
2023-01-17T01:47:35.749Z,19.33
2023-01-17T01:48:35.738Z,19.35
2023-01-17T01:49:35.741Z,19.35
2023-01-17T01:50:35.714Z,19.31
2023-01-17T01:51:35.703Z,19.35
2023-01-17T01:52:35.696Z,19.36
2023-01-17T01:53:35.678Z,19.42
2023-01-17T01:54:35.668Z,19.39
2023-01-17T01:55:35.681Z,19.28
2023-01-17T01:56:35.656Z,19.42
2023-01-17T01:57:35.645Z,19.36
2023-01-17T01:58:35.622Z,19.39
2023-01-17T01:59:35.613Z,19.39
2023-01-17T02:00:35.668Z,19.33
2023-01-17T02:01:35.827Z,19.42
2023-01-17T02:02:35.577Z,19.35
2023-01-17T02:03:35.613Z,19.40
2023-01-17T02:04:35.555Z,19.33
2023-01-17T02:05:35.543Z,19.33
2023-01-17T02:06:35.536Z,19.33
2023-01-17T02:07:35.551Z,19.42
2023-01-17T02:08:35.513Z,19.32
2023-01-17T02:09:35.501Z,19.39
2023-01-17T02:10:35.500Z,19.36
2023-01-17T02:11:35.491Z,19.38
2023-01-17T02:12:35.467Z,19.40
2023-01-17T02:13:35.469Z,19.48
2023-01-17T02:14:35.442Z,19.35
2023-01-17T02:15:35.430Z,19.46
2023-01-17T02:16:35.479Z,19.47
2023-01-17T02:17:35.406Z,19.46
2023-01-17T02:18:35.398Z,19.40
2023-01-17T02:19:35.392Z,19.46
2023-01-17T02:20:35.371Z,19.46
2023-01-17T02:21:35.368Z,19.39
2023-01-17T02:22:35.352Z,19.38
2023-01-17T02:23:35.341Z,19.43
2023-01-17T02:24:35.331Z,19.40
2023-01-17T02:25:35.319Z,19.40
2023-01-17T02:26:35.303Z,19.43
2023-01-17T02:27:35.316Z,19.38
2023-01-17T02:28:35.283Z,19.47
2023-01-17T02:29:35.271Z,19.42
2023-01-17T02:30:35.270Z,19.39
2023-01-17T02:31:36.141Z,19.42
2023-01-17T02:32:35.242Z,19.48
2023-01-17T02:33:35.226Z,19.39
2023-01-17T02:34:35.235Z,19.38
2023-01-17T02:35:35.203Z,19.39
2023-01-17T02:36:35.190Z,19.46
2023-01-17T02:37:35.184Z,19.43
2023-01-17T02:38:35.179Z,19.42
2023-01-17T02:39:35.157Z,19.42
2023-01-17T02:40:35.145Z,19.42
2023-01-17T02:41:35.131Z,19.48
2023-01-17T02:42:35.120Z,19.43
2023-01-17T02:43:35.169Z,19.43
2023-01-17T02:44:35.100Z,19.40
2023-01-17T02:45:35.094Z,19.42
2023-01-17T02:46:35.075Z,19.50
2023-01-17T02:47:35.064Z,19.51
2023-01-17T02:48:35.053Z,19.46
2023-01-17T02:49:35.059Z,19.43
2023-01-17T02:50:35.033Z,19.43
2023-01-17T02:51:35.021Z,19.47
2023-01-17T02:52:35.008Z,19.40
2023-01-17T02:53:34.995Z,19.46
2023-01-17T02:54:34.985Z,19.39
2023-01-17T02:55:34.987Z,19.46
2023-01-17T02:56:34.961Z,19.42
2023-01-17T02:57:34.953Z,19.43
2023-01-17T02:58:34.938Z,19.46
2023-01-17T02:59:34.946Z,19.53
2023-01-17T03:00:34.919Z,19.43
2023-01-17T03:01:35.061Z,19.55
2023-01-17T03:02:34.972Z,19.46
2023-01-17T03:03:34.881Z,19.60
2023-01-17T03:04:34.871Z,19.53
2023-01-17T03:05:34.859Z,19.46
2023-01-17T03:06:34.853Z,19.43
2023-01-17T03:07:34.844Z,19.47
2023-01-17T03:08:34.826Z,19.40
2023-01-17T03:09:34.812Z,19.51
2023-01-17T03:10:34.801Z,19.53
2023-01-17T03:11:34.797Z,19.54
2023-01-17T03:12:34.777Z,19.54
2023-01-17T03:13:34.774Z,19.46
2023-01-17T03:14:34.757Z,19.54
2023-01-17T03:15:34.767Z,19.54
2023-01-17T03:16:34.762Z,19.57
2023-01-17T03:17:34.730Z,19.51
2023-01-17T03:18:34.725Z,19.54
2023-01-17T03:19:34.729Z,19.57
2023-01-17T03:20:34.688Z,19.50
2023-01-17T03:21:34.677Z,19.55
2023-01-17T03:22:34.664Z,19.50
2023-01-17T03:23:34.652Z,19.53
2023-01-17T03:24:34.642Z,19.55
2023-01-17T03:25:34.646Z,19.55
2023-01-17T03:26:34.618Z,19.57
2023-01-17T03:27:34.608Z,19.47
2023-01-17T03:28:34.594Z,19.43
2023-01-17T03:29:34.583Z,19.47
2023-01-17T03:30:34.684Z,19.47
2023-01-17T03:31:34.592Z,19.51
2023-01-17T03:32:34.554Z,19.51
2023-01-17T03:33:34.540Z,19.48
2023-01-17T03:34:34.531Z,19.48
2023-01-17T03:35:34.514Z,19.54
2023-01-17T03:36:34.503Z,19.51
2023-01-17T03:37:34.528Z,19.50
2023-01-17T03:38:34.480Z,19.57
2023-01-17T03:39:34.477Z,19.50
2023-01-17T03:40:34.461Z,19.53
2023-01-17T03:41:34.453Z,19.60
2023-01-17T03:42:34.447Z,19.51
2023-01-17T03:43:34.443Z,19.54
2023-01-17T03:44:34.409Z,19.54
2023-01-17T03:45:34.452Z,19.54
2023-01-17T03:46:34.416Z,19.51
2023-01-17T03:47:34.399Z,19.47
2023-01-17T03:48:34.368Z,19.46
2023-01-17T03:49:34.370Z,19.55
2023-01-17T03:50:34.343Z,19.47
2023-01-17T03:51:34.338Z,19.42
2023-01-17T03:52:34.323Z,19.55
2023-01-17T03:53:34.313Z,19.46
2023-01-17T03:54:34.296Z,19.55
2023-01-17T03:55:34.317Z,19.42
2023-01-17T03:56:34.296Z,19.43
2023-01-17T03:57:34.263Z,19.50
2023-01-17T03:58:34.255Z,19.48
2023-01-17T03:59:34.240Z,19.48
2023-01-17T04:00:34.230Z,19.54
2023-01-17T04:01:34.421Z,19.53
2023-01-17T04:02:34.233Z,19.47
2023-01-17T04:03:34.217Z,19.58
2023-01-17T04:04:34.184Z,19.55
2023-01-17T04:05:34.188Z,19.50
2023-01-17T04:06:34.162Z,19.51
2023-01-17T04:07:34.169Z,19.54
2023-01-17T04:08:34.138Z,19.58
2023-01-17T04:09:34.129Z,19.43
2023-01-17T04:10:34.122Z,19.50
2023-01-17T04:11:34.108Z,19.51
2023-01-17T04:12:34.091Z,19.46
2023-01-17T04:13:34.087Z,19.50
2023-01-17T04:14:34.105Z,19.48
2023-01-17T04:15:34.057Z,19.50
2023-01-17T04:16:34.076Z,19.60
2023-01-17T04:17:34.035Z,19.53
2023-01-17T04:18:34.025Z,19.51
2023-01-17T04:19:34.039Z,19.46
2023-01-17T04:20:34.007Z,19.63
2023-01-17T04:21:33.995Z,19.63
2023-01-17T04:22:33.977Z,19.50
2023-01-17T04:23:33.969Z,19.51
2023-01-17T04:24:33.958Z,19.60
2023-01-17T04:25:33.948Z,19.58
2023-01-17T04:26:33.934Z,19.48
2023-01-17T04:27:33.924Z,19.53
2023-01-17T04:28:33.911Z,19.39
2023-01-17T04:29:33.896Z,19.51
2023-01-17T04:30:33.979Z,19.53
2023-01-17T04:31:33.953Z,19.50
2023-01-17T04:32:33.864Z,19.60
2023-01-17T04:33:33.866Z,19.57
2023-01-17T04:34:33.846Z,19.61
2023-01-17T04:35:33.849Z,19.53
2023-01-17T04:36:33.817Z,19.48
2023-01-17T04:37:33.905Z,19.55
2023-01-17T04:38:33.795Z,19.54
2023-01-17T04:39:33.785Z,19.55
2023-01-17T04:40:33.776Z,19.50
2023-01-17T04:41:33.761Z,19.51
2023-01-17T04:42:33.752Z,19.66
2023-01-17T04:43:33.764Z,19.51
2023-01-17T04:44:33.740Z,19.58
2023-01-17T04:45:33.716Z,19.55
2023-01-17T04:46:33.712Z,19.50
2023-01-17T04:47:33.692Z,19.51
2023-01-17T04:48:33.680Z,19.58
2023-01-17T04:49:33.693Z,19.51
2023-01-17T04:50:33.666Z,19.46
2023-01-17T04:51:33.664Z,19.61
2023-01-17T04:52:33.637Z,19.58
2023-01-17T04:53:33.628Z,19.58
2023-01-17T04:54:33.611Z,19.50
2023-01-17T04:55:33.608Z,19.65
2023-01-17T04:56:33.590Z,19.57
2023-01-17T04:57:33.581Z,19.48
2023-01-17T04:58:33.568Z,19.48
2023-01-17T04:59:33.557Z,19.53
2023-01-17T05:00:33.544Z,19.47
2023-01-17T05:01:33.683Z,19.60
2023-01-17T05:02:33.583Z,19.51
2023-01-17T05:03:33.508Z,19.63
2023-01-17T05:04:33.504Z,19.53
2023-01-17T05:05:33.489Z,19.50
2023-01-17T05:06:33.474Z,19.53
2023-01-17T05:07:35.694Z,19.65
2023-01-17T05:08:33.458Z,19.66
2023-01-17T05:09:33.443Z,19.50
2023-01-17T05:10:33.427Z,19.46
2023-01-17T05:11:33.428Z,19.47
2023-01-17T05:12:33.407Z,19.55
2023-01-17T05:13:33.418Z,19.43
2023-01-17T05:14:33.383Z,19.46
2023-01-17T05:15:33.396Z,19.55
2023-01-17T05:16:33.359Z,19.58
2023-01-17T05:17:33.348Z,19.43
2023-01-17T05:18:33.345Z,19.46
2023-01-17T05:19:33.359Z,19.54
2023-01-17T05:20:33.317Z,19.63
2023-01-17T05:21:33.302Z,19.48
2023-01-17T05:22:33.291Z,19.46
2023-01-17T05:23:33.310Z,19.54
2023-01-17T05:24:33.271Z,19.50
2023-01-17T05:25:33.266Z,19.47
2023-01-17T05:26:33.248Z,19.50
2023-01-17T05:27:33.233Z,19.61
2023-01-17T05:28:33.224Z,19.57
2023-01-17T05:29:33.213Z,19.50
2023-01-17T05:30:33.207Z,19.48
2023-01-17T05:31:33.199Z,19.51
2023-01-17T05:32:33.177Z,19.57
2023-01-17T05:33:33.165Z,19.55
2023-01-17T05:34:33.153Z,19.47
2023-01-17T05:35:33.142Z,19.46
2023-01-17T05:36:33.132Z,19.55
2023-01-17T05:37:33.125Z,19.46
2023-01-17T05:38:33.108Z,19.48
2023-01-17T05:39:33.118Z,19.60
2023-01-17T05:40:33.091Z,19.47
2023-01-17T05:41:33.074Z,19.57
2023-01-17T05:42:33.069Z,19.50
2023-01-17T05:43:33.096Z,19.57
2023-01-17T05:44:33.042Z,19.61
2023-01-17T05:45:33.031Z,19.46
2023-01-17T05:46:33.054Z,19.58
2023-01-17T05:47:33.016Z,19.55
2023-01-17T05:48:32.994Z,19.55
2023-01-17T05:49:32.993Z,19.58
2023-01-17T05:50:32.971Z,19.57
2023-01-17T05:51:32.961Z,19.48
2023-01-17T05:52:32.949Z,19.48
2023-01-17T05:53:32.952Z,19.60
2023-01-17T05:54:32.925Z,19.63
2023-01-17T05:55:32.952Z,19.58
2023-01-17T05:56:32.905Z,19.54
2023-01-17T05:57:32.901Z,19.50
2023-01-17T05:58:32.881Z,19.60
2023-01-17T05:59:37.390Z,19.66
2023-01-17T06:00:32.864Z,19.55
2023-01-17T06:01:32.853Z,19.55
2023-01-17T06:02:32.918Z,19.58
2023-01-17T06:03:32.838Z,19.55
2023-01-17T06:04:32.900Z,19.53
2023-01-17T06:05:32.826Z,19.53
2023-01-17T06:06:32.791Z,19.47
2023-01-17T06:07:32.802Z,19.53
2023-01-17T06:08:32.781Z,19.51
2023-01-17T06:09:32.756Z,19.60
2023-01-17T06:10:32.745Z,19.55
2023-01-17T06:11:32.763Z,19.54
2023-01-17T06:12:32.720Z,19.55
2023-01-17T06:13:32.714Z,19.60
2023-01-17T06:14:32.705Z,19.53
2023-01-17T06:15:32.711Z,19.66
2023-01-17T06:16:32.675Z,19.60
2023-01-17T06:17:32.674Z,19.55
2023-01-17T06:18:32.652Z,19.60
2023-01-17T06:19:32.655Z,19.57
2023-01-17T06:20:32.629Z,19.54
2023-01-17T06:21:32.631Z,19.61
2023-01-17T06:22:32.608Z,19.46
2023-01-17T06:23:32.599Z,19.57
2023-01-17T06:24:32.587Z,19.58
2023-01-17T06:25:32.603Z,19.54
2023-01-17T06:26:32.574Z,19.57
2023-01-17T06:27:32.617Z,19.58
2023-01-17T06:28:32.537Z,19.58
2023-01-17T06:29:32.527Z,19.51
2023-01-17T06:30:32.514Z,19.60
2023-01-17T06:31:32.592Z,19.54
2023-01-17T06:32:32.491Z,19.54
2023-01-17T06:33:32.489Z,19.61
2023-01-17T06:34:32.470Z,19.58
2023-01-17T06:35:32.465Z,19.54
2023-01-17T06:36:32.447Z,19.51
2023-01-17T06:37:32.441Z,19.55
2023-01-17T06:38:32.440Z,19.57
2023-01-17T06:39:32.416Z,19.55
2023-01-17T06:40:32.405Z,19.48
2023-01-17T06:41:32.405Z,19.51
2023-01-17T06:42:32.377Z,19.48
2023-01-17T06:43:32.401Z,19.63
2023-01-17T06:44:32.356Z,19.53
2023-01-17T06:45:32.363Z,19.55
2023-01-17T06:46:32.388Z,19.58
2023-01-17T06:47:32.323Z,19.54
2023-01-17T06:48:32.324Z,19.61
2023-01-17T06:49:32.326Z,19.55
2023-01-17T06:50:32.287Z,19.57
2023-01-17T06:51:32.279Z,19.55
2023-01-17T06:52:32.263Z,19.60
2023-01-17T06:53:32.259Z,19.65
2023-01-17T06:54:32.241Z,19.55
2023-01-17T06:55:32.236Z,19.55
2023-01-17T06:56:32.219Z,19.55
2023-01-17T06:57:32.206Z,19.57
2023-01-17T06:58:32.196Z,19.58
2023-01-17T06:59:32.226Z,19.63
2023-01-17T07:00:32.182Z,19.60
2023-01-17T07:01:32.352Z,19.72
2023-01-17T07:02:32.154Z,19.60
2023-01-17T07:03:32.192Z,19.57
2023-01-17T07:04:32.140Z,19.43
2023-01-17T07:05:32.116Z,19.54
2023-01-17T07:06:32.109Z,19.58
2023-01-17T07:07:33.721Z,19.51
2023-01-17T07:08:32.082Z,19.61
2023-01-17T07:09:32.072Z,19.54
2023-01-17T07:10:32.060Z,19.66
2023-01-17T07:11:32.057Z,19.54
2023-01-17T07:12:32.041Z,19.55
2023-01-17T07:13:32.036Z,19.54
2023-01-17T07:14:32.016Z,19.57
2023-01-17T07:15:32.022Z,19.58
2023-01-17T07:16:32.053Z,19.57
2023-01-17T07:17:31.984Z,19.61
2023-01-17T07:18:31.971Z,19.63
2023-01-17T07:19:31.964Z,19.54
2023-01-17T07:20:31.950Z,19.57
2023-01-17T07:21:31.933Z,19.55
2023-01-17T07:22:31.932Z,19.58
2023-01-17T07:23:31.910Z,19.60
2023-01-17T07:24:31.901Z,19.61
2023-01-17T07:25:31.902Z,19.51
2023-01-17T07:26:31.931Z,19.50
2023-01-17T07:27:31.872Z,19.58
2023-01-17T07:28:31.916Z,19.63
2023-01-17T07:29:31.845Z,19.61
2023-01-17T07:30:31.834Z,19.58
2023-01-17T07:31:31.876Z,19.60
2023-01-17T07:32:31.826Z,19.51
2023-01-17T07:33:31.805Z,19.57
2023-01-17T07:34:31.783Z,19.57
2023-01-17T07:35:31.799Z,19.61
2023-01-17T07:36:31.762Z,19.57
2023-01-17T07:37:31.755Z,19.60
2023-01-17T07:38:31.740Z,19.58
2023-01-17T07:39:31.729Z,19.55
2023-01-17T07:40:34.945Z,19.61
2023-01-17T07:41:32.707Z,19.51
2023-01-17T07:42:31.693Z,19.61
2023-01-17T07:43:31.708Z,19.57
2023-01-17T07:44:31.673Z,19.61
2023-01-17T07:45:31.659Z,19.58
2023-01-17T07:46:31.670Z,19.58
2023-01-17T07:47:31.666Z,19.55
2023-01-17T07:48:31.629Z,19.55
2023-01-17T07:49:31.621Z,19.63
2023-01-17T07:50:31.606Z,19.57
2023-01-17T07:51:31.591Z,19.58
2023-01-17T07:52:31.578Z,19.58
2023-01-17T07:53:31.567Z,19.63
2023-01-17T07:54:31.613Z,19.63
2023-01-17T07:55:31.590Z,19.58
2023-01-17T07:56:31.534Z,19.60
2023-01-17T07:57:31.527Z,19.57
2023-01-17T07:58:31.517Z,19.63
2023-01-17T07:59:31.499Z,19.61
2023-01-17T08:00:31.488Z,19.58
2023-01-17T08:01:31.622Z,19.57
2023-01-17T08:02:31.466Z,19.58
2023-01-17T08:03:31.509Z,19.63
2023-01-17T08:04:31.447Z,19.68
2023-01-17T08:05:31.431Z,19.65
2023-01-17T08:06:31.430Z,19.60
2023-01-17T08:07:31.416Z,19.58
2023-01-17T08:08:31.400Z,19.60
2023-01-17T08:09:31.383Z,19.54
2023-01-17T08:10:31.381Z,19.66
2023-01-17T08:11:31.364Z,19.63
2023-01-17T08:12:31.352Z,19.61
2023-01-17T08:13:31.364Z,19.72
2023-01-17T08:14:31.331Z,19.68
2023-01-17T08:15:31.320Z,19.65
2023-01-17T08:16:31.346Z,19.69
2023-01-17T08:17:31.292Z,19.69
2023-01-17T08:18:31.291Z,19.68
2023-01-17T08:19:31.307Z,19.63
2023-01-17T08:20:31.280Z,19.68
2023-01-17T08:21:31.246Z,19.65
2023-01-17T08:22:31.236Z,19.63
2023-01-17T08:23:31.227Z,19.68
2023-01-17T08:24:31.225Z,19.72
2023-01-17T08:25:31.213Z,19.61
2023-01-17T08:26:31.197Z,19.63
2023-01-17T08:27:31.186Z,19.61
2023-01-17T08:28:31.167Z,19.69
2023-01-17T08:29:31.158Z,19.66
2023-01-17T08:30:31.147Z,19.66
2023-01-17T08:31:31.206Z,19.66
2023-01-17T08:32:31.125Z,19.69
2023-01-17T08:33:31.117Z,19.61
2023-01-17T08:34:31.103Z,19.63
2023-01-17T08:35:31.117Z,19.63
2023-01-17T08:36:31.079Z,19.65
2023-01-17T08:37:31.074Z,19.63
2023-01-17T08:38:31.054Z,19.61
2023-01-17T08:39:31.048Z,19.60
2023-01-17T08:40:31.033Z,19.69
2023-01-17T08:41:31.022Z,19.70
2023-01-17T08:42:31.007Z,19.61
2023-01-17T08:43:31.038Z,19.63
2023-01-17T08:44:30.985Z,19.61
2023-01-17T08:45:31.040Z,19.60
2023-01-17T08:46:32.835Z,19.61
2023-01-17T08:47:30.951Z,19.61
2023-01-17T08:48:30.952Z,19.63
2023-01-17T08:49:30.954Z,19.65
2023-01-17T08:50:30.917Z,19.65
2023-01-17T08:51:30.927Z,19.60
2023-01-17T08:52:30.893Z,19.63
2023-01-17T08:53:30.898Z,19.65
2023-01-17T08:54:30.874Z,19.66
2023-01-17T08:55:30.888Z,19.61
2023-01-17T08:56:30.856Z,19.63
2023-01-17T08:57:30.839Z,19.65
2023-01-17T08:58:31.023Z,19.65
2023-01-17T08:59:30.813Z,19.66
2023-01-17T09:00:30.804Z,19.66
2023-01-17T09:01:30.899Z,19.63
2023-01-17T09:02:30.782Z,19.65
2023-01-17T09:03:30.771Z,19.63
2023-01-17T09:04:30.827Z,19.65
2023-01-17T09:05:30.745Z,19.66
2023-01-17T09:06:30.735Z,19.66
2023-01-17T09:07:30.754Z,19.63
2023-01-17T09:08:30.733Z,19.65
2023-01-17T09:09:30.710Z,19.63
2023-01-17T09:10:30.703Z,19.65
2023-01-17T09:11:30.692Z,19.58
2023-01-17T09:12:30.668Z,19.65
2023-01-17T09:13:30.659Z,19.73
2023-01-17T09:14:30.642Z,19.66
2023-01-17T09:15:30.632Z,19.72
2023-01-17T09:16:30.656Z,19.63
2023-01-17T09:17:30.608Z,19.58
2023-01-17T09:18:30.609Z,19.68
2023-01-17T09:19:30.591Z,19.63
2023-01-17T09:20:30.578Z,19.63
2023-01-17T09:21:30.563Z,19.68
2023-01-17T09:22:30.562Z,19.70
2023-01-17T09:23:30.577Z,19.63
2023-01-17T09:24:30.533Z,19.70
2023-01-17T09:25:30.523Z,19.65
2023-01-17T09:26:30.506Z,19.66
2023-01-17T09:27:30.494Z,19.73
2023-01-17T09:28:30.487Z,19.66
2023-01-17T09:29:30.473Z,19.69
2023-01-17T09:30:30.473Z,19.76
2023-01-17T09:31:30.461Z,19.68
2023-01-17T09:32:30.438Z,19.72
2023-01-17T09:33:30.428Z,19.73
2023-01-17T09:34:30.481Z,19.75
2023-01-17T09:35:30.403Z,19.68
2023-01-17T09:36:30.391Z,19.65
2023-01-17T09:37:30.392Z,19.73
2023-01-17T09:38:30.374Z,19.79
2023-01-17T09:39:30.383Z,19.80
2023-01-17T09:40:30.346Z,19.76
2023-01-17T09:41:30.334Z,19.66
2023-01-17T09:42:30.321Z,19.79
2023-01-17T09:43:30.319Z,19.73
2023-01-17T09:44:30.304Z,19.73
2023-01-17T09:45:30.303Z,19.73
2023-01-17T09:46:30.282Z,19.75
2023-01-17T09:47:30.354Z,19.69
2023-01-17T09:48:30.257Z,19.69
2023-01-17T09:49:30.260Z,19.76
2023-01-17T09:50:30.237Z,19.66
2023-01-17T09:51:30.225Z,19.73
2023-01-17T09:52:30.225Z,19.72
2023-01-17T09:53:30.196Z,19.76
2023-01-17T09:54:30.189Z,19.65
2023-01-17T09:55:30.202Z,19.68
2023-01-17T09:56:30.166Z,19.75
2023-01-17T09:57:30.152Z,19.66
2023-01-17T09:58:30.141Z,19.68
2023-01-17T09:59:35.372Z,19.73
2023-01-17T10:00:31.146Z,19.65
2023-01-17T10:01:30.283Z,19.68
2023-01-17T10:02:30.261Z,19.69
2023-01-17T10:03:30.218Z,19.76
2023-01-17T10:04:30.073Z,19.78
2023-01-17T10:05:30.091Z,19.69
2023-01-17T10:06:30.078Z,19.72
2023-01-17T10:07:30.040Z,19.69
2023-01-17T10:08:30.045Z,19.76
2023-01-17T10:09:30.023Z,19.72
2023-01-17T10:10:30.006Z,19.78
2023-01-17T10:11:30.031Z,19.72
2023-01-17T10:12:29.985Z,19.80
2023-01-17T10:13:29.972Z,19.76
2023-01-17T10:14:29.958Z,19.79
2023-01-17T10:15:29.949Z,19.66
2023-01-17T10:16:29.960Z,19.79
2023-01-17T10:17:29.922Z,19.68
2023-01-17T10:18:30.703Z,19.76
2023-01-17T10:19:29.907Z,19.73
2023-01-17T10:20:29.893Z,19.79
2023-01-17T10:21:29.879Z,19.69
2023-01-17T10:22:29.868Z,19.73
2023-01-17T10:23:29.854Z,19.69
2023-01-17T10:24:29.855Z,19.73
2023-01-17T10:25:29.832Z,19.73
2023-01-17T10:26:29.821Z,19.86
2023-01-17T10:27:29.829Z,19.70
2023-01-17T10:28:29.801Z,19.76
2023-01-17T10:29:29.788Z,19.76
2023-01-17T10:30:29.838Z,19.73
2023-01-17T10:31:29.765Z,19.72
2023-01-17T10:32:29.751Z,19.76
2023-01-17T10:33:29.747Z,19.75
2023-01-17T10:34:29.736Z,19.83
2023-01-17T10:35:29.721Z,19.76
2023-01-17T10:36:29.716Z,19.70
2023-01-17T10:37:29.696Z,19.83
2023-01-17T10:38:29.687Z,19.78
2023-01-17T10:39:29.679Z,19.86
2023-01-17T10:40:29.667Z,19.75
2023-01-17T10:41:29.652Z,19.78
2023-01-17T10:42:29.648Z,19.72
2023-01-17T10:43:29.751Z,19.79
2023-01-17T10:44:29.619Z,19.76
2023-01-17T10:45:29.605Z,19.76
2023-01-17T10:46:29.663Z,19.73
2023-01-17T10:47:29.584Z,19.79
2023-01-17T10:48:29.591Z,19.75
2023-01-17T10:49:29.575Z,19.86
2023-01-17T10:50:29.547Z,19.73
2023-01-17T10:51:29.537Z,19.68
2023-01-17T10:52:29.526Z,19.76
2023-01-17T10:53:29.512Z,19.69
2023-01-17T10:54:29.523Z,19.75
2023-01-17T10:55:29.507Z,19.79
2023-01-17T10:56:29.479Z,19.78
2023-01-17T10:57:29.472Z,19.78
2023-01-17T10:58:29.459Z,19.78
2023-01-17T10:59:29.463Z,19.78
2023-01-17T11:00:29.443Z,19.79
2023-01-17T11:01:29.512Z,19.72
2023-01-17T11:02:29.534Z,19.78
2023-01-17T11:03:29.405Z,19.83
2023-01-17T11:04:29.386Z,19.80
2023-01-17T11:05:29.396Z,19.78
2023-01-17T11:06:29.370Z,19.80
2023-01-17T11:07:29.360Z,19.80
2023-01-17T11:08:29.341Z,19.75
2023-01-17T11:09:29.329Z,19.76
2023-01-17T11:10:29.321Z,19.78
2023-01-17T11:11:29.305Z,19.75
2023-01-17T11:12:29.316Z,19.76
2023-01-17T11:13:29.293Z,19.83
2023-01-17T11:14:29.270Z,19.83
2023-01-17T11:15:29.307Z,19.70
2023-01-17T11:16:29.259Z,19.80
2023-01-17T11:17:29.237Z,19.78
2023-01-17T11:18:29.237Z,19.79
2023-01-17T11:19:29.213Z,19.72
2023-01-17T11:20:29.202Z,19.78
2023-01-17T11:21:29.196Z,19.84
2023-01-17T11:22:29.181Z,19.78
2023-01-17T11:23:29.169Z,19.76
2023-01-17T11:24:29.173Z,19.84
2023-01-17T11:25:29.147Z,19.79
2023-01-17T11:26:29.134Z,19.79
2023-01-17T11:27:29.147Z,19.79
2023-01-17T11:28:29.124Z,19.73
2023-01-17T11:29:29.101Z,19.75
2023-01-17T11:30:29.099Z,19.80
2023-01-17T11:31:29.104Z,19.75
2023-01-17T11:32:29.073Z,19.72
2023-01-17T11:33:30.730Z,19.86
2023-01-17T11:34:29.044Z,19.84
2023-01-17T11:35:29.033Z,19.88
2023-01-17T11:36:29.034Z,19.76
2023-01-17T11:37:29.010Z,19.70
2023-01-17T11:38:28.998Z,19.84
2023-01-17T11:39:28.988Z,19.73
2023-01-17T11:40:28.983Z,19.78
2023-01-17T11:41:28.965Z,19.76
2023-01-17T11:42:28.957Z,19.84
2023-01-17T11:43:28.941Z,19.84
2023-01-17T11:44:28.927Z,19.76
2023-01-17T11:45:28.920Z,19.80
2023-01-17T11:46:28.962Z,19.75
2023-01-17T11:47:28.917Z,19.83
2023-01-17T11:48:28.896Z,19.84
2023-01-17T11:49:28.873Z,19.79
2023-01-17T11:50:28.865Z,19.83
2023-01-17T11:51:28.851Z,19.83
2023-01-17T11:52:28.843Z,19.90
2023-01-17T11:53:28.825Z,19.87
2023-01-17T11:54:28.831Z,19.83
2023-01-17T11:55:28.804Z,19.79
2023-01-17T11:56:28.791Z,19.88
2023-01-17T11:57:28.780Z,19.76
2023-01-17T11:58:28.768Z,19.79
2023-01-17T11:59:28.786Z,19.76
2023-01-17T12:00:28.756Z,19.83
2023-01-17T12:01:28.739Z,19.76
2023-01-17T12:02:28.728Z,19.83
2023-01-17T12:03:28.864Z,19.88
2023-01-17T12:04:28.705Z,19.78
2023-01-17T12:05:28.691Z,19.83
2023-01-17T12:06:28.685Z,19.88
2023-01-17T12:07:28.689Z,19.84
2023-01-17T12:08:28.658Z,19.84
2023-01-17T12:09:28.647Z,19.87
2023-01-17T12:10:28.642Z,19.91
2023-01-17T12:11:28.621Z,19.90
2023-01-17T12:12:28.618Z,19.88
2023-01-17T12:13:28.622Z,19.80
2023-01-17T12:14:28.586Z,19.84
2023-01-17T12:15:28.574Z,19.86
2023-01-17T12:16:28.563Z,19.88
2023-01-17T12:17:28.552Z,19.88
2023-01-17T12:18:28.562Z,19.88
2023-01-17T12:19:28.565Z,19.86
2023-01-17T12:20:28.522Z,19.90
2023-01-17T12:21:28.507Z,19.94
2023-01-17T12:22:28.496Z,19.98
2023-01-17T12:23:28.506Z,20.02
2023-01-17T12:24:28.480Z,20.10
2023-01-17T12:25:28.483Z,20.08
2023-01-17T12:26:28.451Z,20.10
2023-01-17T12:27:28.442Z,20.15
2023-01-17T12:28:28.426Z,20.15
2023-01-17T12:29:28.435Z,20.30
2023-01-17T12:30:28.420Z,20.28
2023-01-17T12:31:28.470Z,20.30
2023-01-17T12:32:28.396Z,20.25
2023-01-17T12:33:28.373Z,20.25
2023-01-17T12:34:28.362Z,20.27
2023-01-17T12:35:28.368Z,20.34
2023-01-17T12:36:28.342Z,20.30
2023-01-17T12:37:28.336Z,20.34
2023-01-17T12:38:32.961Z,20.34
2023-01-17T12:39:29.300Z,20.25
2023-01-17T12:40:28.291Z,20.25
2023-01-17T12:41:28.282Z,20.27
2023-01-17T12:42:28.271Z,20.31
2023-01-17T12:43:28.257Z,20.33
2023-01-17T12:44:28.248Z,20.34
2023-01-17T12:45:28.235Z,20.27
2023-01-17T12:46:28.233Z,20.30
2023-01-17T12:47:28.210Z,20.28
2023-01-17T12:48:28.203Z,20.33
2023-01-17T12:49:28.190Z,20.31
2023-01-17T12:50:28.196Z,20.27
2023-01-17T12:51:28.180Z,20.30
2023-01-17T12:52:28.152Z,20.34